createdAt,value
2023-03-07T00:01:31.006Z,86.74
2023-03-07T00:03:58.219Z,86.66
2023-03-07T00:06:25.409Z,86.91
2023-03-07T00:08:53.063Z,86.49
2023-03-07T00:11:19.803Z,86.88
2023-03-07T00:13:46.276Z,86.93
2023-03-07T00:16:18.337Z,87.06
2023-03-07T00:18:44.804Z,86.97
2023-03-07T00:21:13.627Z,87.20
2023-03-07T00:23:41.656Z,87.40
2023-03-07T00:26:12.781Z,87.40
2023-03-07T00:28:39.294Z,87.38
2023-03-07T00:31:08.300Z,87.48
2023-03-07T00:33:35.064Z,87.46
2023-03-07T00:36:04.313Z,87.36
2023-03-07T00:38:31.688Z,87.50
2023-03-07T00:41:09.137Z,87.44
2023-03-07T00:43:35.961Z,87.26
2023-03-07T00:46:03.148Z,87.25
2023-03-07T00:48:29.960Z,87.64
2023-03-07T00:50:56.731Z,87.36
2023-03-07T00:53:25.027Z,87.37
2023-03-07T00:56:05.621Z,87.40
2023-03-07T00:58:34.409Z,87.45
2023-03-07T01:01:01.631Z,87.25
2023-03-07T01:03:28.522Z,87.53
2023-03-07T01:05:55.705Z,87.15
2023-03-07T01:08:22.585Z,87.24
2023-03-07T01:10:49.070Z,87.28
2023-03-07T01:13:16.961Z,87.07
2023-03-07T01:15:43.412Z,87.71
2023-03-07T01:18:10.743Z,87.14
2023-03-07T01:20:38.506Z,86.89
2023-03-07T01:23:05.466Z,87.26
2023-03-07T01:25:32.100Z,86.99
2023-03-07T01:27:58.528Z,86.93
2023-03-07T01:30:25.658Z,86.69
2023-03-07T01:32:56.449Z,86.80
2023-03-07T01:35:23.543Z,87.00
2023-03-07T01:37:51.112Z,86.77
2023-03-07T01:40:18.347Z,86.48
2023-03-07T01:42:44.947Z,86.61
2023-03-07T01:45:14.271Z,86.22
2023-03-07T01:47:43.461Z,86.55
2023-03-07T01:50:16.801Z,86.18
2023-03-07T01:52:46.293Z,86.33
2023-03-07T01:55:18.901Z,86.27
2023-03-07T01:57:47.274Z,86.32
2023-03-07T02:00:23.400Z,85.95
2023-03-07T02:02:55.703Z,85.77
2023-03-07T02:05:26.439Z,85.83
2023-03-07T02:07:54.065Z,85.69
2023-03-07T02:10:22.086Z,85.63
2023-03-07T02:12:49.075Z,85.70
2023-03-07T02:15:15.587Z,85.64
2023-03-07T02:17:42.857Z,85.66
2023-03-07T02:20:13.020Z,85.22
2023-03-07T02:22:40.830Z,85.31
2023-03-07T02:25:19.365Z,85.36
2023-03-07T02:27:46.013Z,85.27
2023-03-07T02:30:12.666Z,85.35
2023-03-07T02:32:39.168Z,85.07
2023-03-07T02:35:13.229Z,85.38
2023-03-07T02:37:40.066Z,85.23
2023-03-07T02:40:08.454Z,85.43
2023-03-07T02:42:38.060Z,85.58
2023-03-07T02:45:06.779Z,86.06
2023-03-07T02:47:33.200Z,85.74
2023-03-07T02:49:59.701Z,85.79
2023-03-07T02:52:28.551Z,85.97
2023-03-07T02:54:55.582Z,86.28
2023-03-07T02:57:22.267Z,86.93
2023-03-07T02:59:48.664Z,86.52
2023-03-07T03:02:15.110Z,86.98
2023-03-07T03:04:41.685Z,87.05
2023-03-07T03:07:08.157Z,87.29
2023-03-07T03:09:34.579Z,87.23
2023-03-07T03:12:01.010Z,87.82
2023-03-07T03:14:27.455Z,88.11
2023-03-07T03:16:54.416Z,88.24
2023-03-07T03:19:20.824Z,88.21
2023-03-07T03:21:47.899Z,88.28
2023-03-07T03:24:14.369Z,88.71
2023-03-07T03:26:40.775Z,88.91
2023-03-07T03:29:07.196Z,89.29
2023-03-07T03:31:34.905Z,89.07
2023-03-07T03:34:01.389Z,89.64
2023-03-07T03:36:28.290Z,89.62
2023-03-07T03:38:56.287Z,90.00
2023-03-07T03:41:23.330Z,90.00
2023-03-07T03:43:49.828Z,90.25
2023-03-07T03:46:17.590Z,90.49
2023-03-07T03:48:44.447Z,90.59
2023-03-07T03:51:14.569Z,90.50
2023-03-07T03:53:41.103Z,90.44
2023-03-07T03:56:11.713Z,90.48
2023-03-07T03:58:38.527Z,90.72
2023-03-07T04:01:07.638Z,90.82
2023-03-07T04:03:35.465Z,90.80
2023-03-07T04:06:07.777Z,90.64
2023-03-07T04:08:35.046Z,90.57
2023-03-07T04:11:01.534Z,90.63
2023-03-07T04:13:28.025Z,90.65
2023-03-07T04:15:54.588Z,90.68
2023-03-07T04:18:22.605Z,90.79
2023-03-07T04:20:50.403Z,90.48
2023-03-07T04:23:17.883Z,90.77
2023-03-07T04:25:52.477Z,90.70
2023-03-07T04:28:19.240Z,91.03
2023-03-07T04:30:45.822Z,90.78
2023-03-07T04:33:12.843Z,91.08
2023-03-07T04:35:39.807Z,90.71
2023-03-07T04:38:07.091Z,90.32
2023-03-07T04:40:34.269Z,90.41
2023-03-07T04:43:00.998Z,90.29
2023-03-07T04:45:27.570Z,90.27
2023-03-07T04:47:53.996Z,90.14
2023-03-07T04:50:20.592Z,89.99
2023-03-07T04:52:47.023Z,89.69
2023-03-07T04:55:13.416Z,89.59
2023-03-07T04:57:39.861Z,89.50
2023-03-07T05:00:10.081Z,89.36
2023-03-07T05:02:37.439Z,89.30
2023-03-07T05:05:04.283Z,89.25
2023-03-07T05:07:31.128Z,88.63
2023-03-07T05:09:57.576Z,88.53
2023-03-07T05:12:24.908Z,88.60
2023-03-07T05:14:51.320Z,88.34
2023-03-07T05:17:19.216Z,88.06
2023-03-07T05:19:45.635Z,88.01
2023-03-07T05:22:12.084Z,87.86
2023-03-07T05:24:38.489Z,87.84
2023-03-07T05:27:05.098Z,87.52
2023-03-07T05:29:31.528Z,87.63
2023-03-07T05:31:58.863Z,87.33
2023-03-07T05:34:25.314Z,87.55
2023-03-07T05:36:51.711Z,87.35
2023-03-07T05:39:18.136Z,87.59
2023-03-07T05:41:44.543Z,87.19
2023-03-07T05:44:10.973Z,87.40
2023-03-07T05:46:37.429Z,87.54
2023-03-07T05:49:03.870Z,87.89
2023-03-07T05:51:30.284Z,87.66
2023-03-07T05:53:56.702Z,88.10
2023-03-07T05:56:23.121Z,87.98
2023-03-07T05:58:49.550Z,87.75
2023-03-07T06:01:15.948Z,87.79
2023-03-07T06:03:44.026Z,88.08
2023-03-07T06:06:12.206Z,87.75
2023-03-07T06:08:38.767Z,87.83
2023-03-07T06:11:05.319Z,87.35
2023-03-07T06:13:31.752Z,87.73
2023-03-07T06:15:58.245Z,87.30
2023-03-07T06:18:25.659Z,87.78
2023-03-07T06:21:13.488Z,87.21
2023-03-07T06:23:39.954Z,86.53
2023-03-07T06:26:08.054Z,86.26
2023-03-07T06:28:35.251Z,85.80
2023-03-07T06:31:01.784Z,85.62
2023-03-07T06:33:28.222Z,85.62
2023-03-07T06:35:54.797Z,85.69
2023-03-07T06:38:21.251Z,85.62
2023-03-07T06:40:55.475Z,85.39
2023-03-07T06:43:22.251Z,84.97
2023-03-07T06:45:48.763Z,84.93
2023-03-07T06:48:15.206Z,84.78
2023-03-07T06:50:41.606Z,84.65
2023-03-07T06:53:08.008Z,84.73
2023-03-07T06:55:34.483Z,84.78
2023-03-07T06:58:00.923Z,84.43
2023-03-07T07:00:27.433Z,84.33
2023-03-07T07:02:54.171Z,83.91
2023-03-07T07:05:20.750Z,83.83
2023-03-07T07:07:47.184Z,83.67
2023-03-07T07:10:13.617Z,83.32
2023-03-07T07:12:40.129Z,83.16
2023-03-07T07:15:07.322Z,82.94
2023-03-07T07:17:35.681Z,82.41
2023-03-07T07:20:05.284Z,82.95
2023-03-07T07:22:32.286Z,82.42
2023-03-07T07:24:58.729Z,82.61
2023-03-07T07:27:25.869Z,82.91
2023-03-07T07:29:52.300Z,82.36
2023-03-07T07:32:18.816Z,82.42
2023-03-07T07:34:45.344Z,82.24
2023-03-07T07:37:11.754Z,82.31
2023-03-07T07:39:40.734Z,82.18
2023-03-07T07:42:07.144Z,82.14
2023-03-07T07:44:33.584Z,82.17
2023-03-07T07:47:01.013Z,82.29
2023-03-07T07:49:27.497Z,81.90
2023-03-07T07:51:53.945Z,82.54
2023-03-07T07:54:20.362Z,82.73
2023-03-07T07:56:46.788Z,83.37
2023-03-07T07:59:13.305Z,84.65
2023-03-07T08:01:39.816Z,85.02
2023-03-07T08:04:06.277Z,84.98
2023-03-07T08:06:32.690Z,85.16
2023-03-07T08:09:00.149Z,84.85
2023-03-07T08:11:27.030Z,85.29
2023-03-07T08:13:53.484Z,85.95
2023-03-07T08:16:21.773Z,85.82
2023-03-07T08:18:50.320Z,86.19
2023-03-07T08:21:17.016Z,86.49
2023-03-07T08:23:43.491Z,86.73
2023-03-07T08:26:10.418Z,87.03
2023-03-07T08:28:37.550Z,86.94
2023-03-07T08:31:34.457Z,86.74
2023-03-07T08:34:01.980Z,86.86
2023-03-07T08:36:28.390Z,87.39
2023-03-07T08:38:54.821Z,87.87
2023-03-07T08:41:22.250Z,87.43
2023-03-07T08:43:48.837Z,87.69
2023-03-07T08:46:15.412Z,87.52
2023-03-07T08:48:41.855Z,87.68
2023-03-07T08:51:10.583Z,87.08
2023-03-07T08:53:37.429Z,87.02
2023-03-07T08:56:12.317Z,86.42
2023-03-07T08:58:38.991Z,86.78
2023-03-07T09:01:06.991Z,86.71
2023-03-07T09:03:34.190Z,87.05
2023-03-07T09:06:01.524Z,87.01
2023-03-07T09:08:27.923Z,86.93
2023-03-07T09:10:54.459Z,86.87
2023-03-07T09:13:20.898Z,86.88
2023-03-07T09:15:47.605Z,86.49
2023-03-07T09:18:14.032Z,86.46
2023-03-07T09:20:40.709Z,86.10
2023-03-07T09:23:08.130Z,85.59
2023-03-07T09:25:34.628Z,85.34
2023-03-07T09:28:01.044Z,85.56
2023-03-07T09:30:28.831Z,85.20
2023-03-07T09:32:55.818Z,84.78
2023-03-07T09:35:22.504Z,84.44
2023-03-07T09:37:49.026Z,84.69
2023-03-07T09:40:20.243Z,85.35
2023-03-07T09:42:55.740Z,85.53
2023-03-07T09:45:37.151Z,85.98
2023-03-07T09:48:20.929Z,86.28
2023-03-07T09:51:22.764Z,86.25
2023-03-07T09:53:58.094Z,86.50
2023-03-07T09:56:29.527Z,86.12
2023-03-07T09:59:22.075Z,85.72
2023-03-07T10:01:51.766Z,85.30
2023-03-07T10:04:23.097Z,85.55
2023-03-07T10:06:55.246Z,85.39
2023-03-07T10:09:23.536Z,84.92
2023-03-07T10:11:56.042Z,84.46
2023-03-07T10:14:31.569Z,84.28
2023-03-07T10:17:18.166Z,84.11
2023-03-07T10:19:49.056Z,83.99
2023-03-07T10:22:25.258Z,84.60
2023-03-07T10:25:00.914Z,83.75
2023-03-07T10:27:29.128Z,82.61
2023-03-07T10:29:58.506Z,82.70
2023-03-07T10:32:35.129Z,82.25
2023-03-07T10:35:20.845Z,81.77
2023-03-07T10:37:59.066Z,81.47
2023-03-07T10:40:34.840Z,81.71
2023-03-07T10:43:01.298Z,81.43
2023-03-07T10:45:30.724Z,81.47
2023-03-07T10:48:06.364Z,82.13
2023-03-07T10:50:43.832Z,82.21
2023-03-07T10:53:22.557Z,82.05
2023-03-07T10:55:48.967Z,82.57
2023-03-07T10:58:21.038Z,82.69
2023-03-07T11:01:18.463Z,82.83
2023-03-07T11:03:53.624Z,82.90
2023-03-07T11:06:51.448Z,83.27
2023-03-07T11:09:26.362Z,82.61
2023-03-07T11:11:58.487Z,82.32
2023-03-07T11:14:26.567Z,82.20
2023-03-07T11:16:59.950Z,82.38
2023-03-07T11:19:38.423Z,82.21
2023-03-07T11:22:17.683Z,82.42
2023-03-07T11:24:51.773Z,82.10
2023-03-07T11:27:26.808Z,82.52
2023-03-07T11:30:17.401Z,82.73
2023-03-07T11:33:03.252Z,82.56
2023-03-07T11:35:41.688Z,82.93
2023-03-07T11:38:19.928Z,83.01
2023-03-07T11:41:01.743Z,82.91
2023-03-07T11:43:44.950Z,82.66
2023-03-07T11:46:35.907Z,83.59
2023-03-07T11:49:20.708Z,83.29
2023-03-07T11:52:04.347Z,83.78
2023-03-07T11:54:42.747Z,83.67
2023-03-07T11:57:18.104Z,83.96
2023-03-07T11:59:56.147Z,84.75
2023-03-07T12:02:29.695Z,84.42
2023-03-07T12:05:37.033Z,84.56
2023-03-07T12:08:26.268Z,84.02
2023-03-07T12:11:23.702Z,84.22
2023-03-07T12:14:05.094Z,83.94
2023-03-07T12:16:55.769Z,84.06
2023-03-07T12:19:47.834Z,84.26
2023-03-07T12:22:28.439Z,84.88
2023-03-07T12:25:17.565Z,84.23
2023-03-07T12:27:57.740Z,84.27
2023-03-07T12:30:35.574Z,84.44
2023-03-07T12:33:02.902Z,85.02
2023-03-07T12:35:42.322Z,85.02
2023-03-07T12:38:23.316Z,85.58
2023-03-07T12:40:56.372Z,85.59
2023-03-07T12:43:39.599Z,85.54
2023-03-07T12:46:45.876Z,84.77
2023-03-07T12:49:22.089Z,84.39
2023-03-07T12:51:59.191Z,84.57
2023-03-07T12:54:37.371Z,85.31
2023-03-07T12:57:11.732Z,85.15
2023-03-07T12:59:40.837Z,84.63
2023-03-07T13:02:13.793Z,84.95
2023-03-07T13:04:42.664Z,84.67
2023-03-07T13:07:13.231Z,84.61
2023-03-07T13:09:42.067Z,84.19
2023-03-07T13:12:22.421Z,84.86
2023-03-07T13:14:53.093Z,84.47
2023-03-07T13:17:45.681Z,84.96
2023-03-07T13:20:14.944Z,84.62
2023-03-07T13:22:41.228Z,84.38
2023-03-07T13:25:19.588Z,84.35
2023-03-07T13:27:54.241Z,84.09
2023-03-07T13:30:28.925Z,84.49
2023-03-07T13:33:21.639Z,84.55
2023-03-07T13:35:57.001Z,84.71
2023-03-07T13:38:23.332Z,85.50
2023-03-07T13:40:58.856Z,85.95
2023-03-07T13:43:27.878Z,85.51
2023-03-07T13:46:20.005Z,85.51
2023-03-07T13:48:49.363Z,85.56
2023-03-07T13:51:15.960Z,85.00
2023-03-07T13:54:03.872Z,85.18
2023-03-07T13:56:42.464Z,85.82
2023-03-07T13:59:22.452Z,84.91
2023-03-07T14:01:57.834Z,84.53
2023-03-07T14:04:40.912Z,83.78
2023-03-07T14:07:24.963Z,83.53
2023-03-07T14:09:54.917Z,84.18
2023-03-07T14:12:44.566Z,83.24
2023-03-07T14:15:34.494Z,82.80
2023-03-07T14:18:29.469Z,82.42
2023-03-07T14:21:12.492Z,82.23
2023-03-07T14:23:52.872Z,82.29
2023-03-07T14:26:36.857Z,82.06
2023-03-07T14:29:20.532Z,82.02
2023-03-07T14:31:47.485Z,82.05
2023-03-07T14:34:33.658Z,82.16
2023-03-07T14:37:21.495Z,81.48
2023-03-07T14:40:00.025Z,80.55
2023-03-07T14:42:56.853Z,81.04
2023-03-07T14:45:40.693Z,80.38
2023-03-07T14:48:23.814Z,79.96
2023-03-07T14:50:50.648Z,80.74
2023-03-07T14:53:21.322Z,80.69
2023-03-07T14:55:49.289Z,80.21
2023-03-07T14:58:43.489Z,80.01
2023-03-07T15:01:15.972Z,79.63
2023-03-07T15:03:49.693Z,79.91
2023-03-07T15:06:18.924Z,79.72
2023-03-07T15:08:46.595Z,79.64
2023-03-07T15:11:29.786Z,79.83
2023-03-07T15:14:20.929Z,79.47
2023-03-07T15:16:50.705Z,78.78
2023-03-07T15:19:21.662Z,79.55
2023-03-07T15:21:54.344Z,79.77
2023-03-07T15:24:26.441Z,79.18
2023-03-07T15:26:55.360Z,78.89
2023-03-07T15:29:23.816Z,79.41
2023-03-07T15:32:08.316Z,79.41
2023-03-07T15:34:37.598Z,79.34
2023-03-07T15:37:23.001Z,79.61
2023-03-07T15:40:02.714Z,80.05
2023-03-07T15:42:30.012Z,79.19
2023-03-07T15:44:58.058Z,80.01
2023-03-07T15:47:25.211Z,79.75
2023-03-07T15:49:54.587Z,80.20
2023-03-07T15:52:37.004Z,80.11
2023-03-07T15:55:16.788Z,79.74
2023-03-07T15:58:01.380Z,79.55
2023-03-07T16:00:33.084Z,79.99
2023-03-07T16:03:28.589Z,80.28
2023-03-07T16:05:56.523Z,80.75
2023-03-07T16:08:23.406Z,80.73
2023-03-07T16:10:52.915Z,81.41
2023-03-07T16:13:22.215Z,81.59
2023-03-07T16:16:15.047Z,81.74
2023-03-07T16:18:42.374Z,82.19
2023-03-07T16:21:14.857Z,82.62
2023-03-07T16:23:41.462Z,83.35
2023-03-07T16:26:13.289Z,82.88
2023-03-07T16:28:39.823Z,83.38
2023-03-07T16:31:14.483Z,83.61
2023-03-07T16:33:40.991Z,84.09
2023-03-07T16:36:09.314Z,84.01
2023-03-07T16:38:35.755Z,84.16
2023-03-07T16:41:04.392Z,84.71
2023-03-07T16:43:36.625Z,84.66
2023-03-07T16:46:06.420Z,85.08
2023-03-07T16:48:33.189Z,84.94
2023-03-07T16:50:59.614Z,84.87
2023-03-07T16:53:26.648Z,85.07
2023-03-07T16:55:55.017Z,84.88
2023-03-07T16:58:27.928Z,84.88
2023-03-07T17:00:54.464Z,85.53
2023-03-07T17:03:20.904Z,85.02
2023-03-07T17:05:47.638Z,84.87
2023-03-07T17:08:14.065Z,84.87
2023-03-07T17:10:42.099Z,84.82
2023-03-07T17:13:14.688Z,84.92
2023-03-07T17:15:41.246Z,84.59
2023-03-07T17:18:07.727Z,84.53
2023-03-07T17:20:34.129Z,83.91
2023-03-07T17:23:00.550Z,83.23
2023-03-07T17:25:28.040Z,82.25
2023-03-07T17:28:06.933Z,82.27
2023-03-07T17:30:33.408Z,82.33
2023-03-07T17:33:00.930Z,81.99
2023-03-07T17:35:28.313Z,81.59
2023-03-07T17:37:54.748Z,80.63
2023-03-07T17:40:21.788Z,80.62
2023-03-07T17:42:50.488Z,80.31
2023-03-07T17:45:17.245Z,80.17
2023-03-07T17:47:43.660Z,80.09
2023-03-07T17:50:10.947Z,79.59
2023-03-07T17:52:37.412Z,79.37
2023-03-07T17:55:03.955Z,79.42
2023-03-07T17:57:30.418Z,79.51
2023-03-07T17:59:56.895Z,79.49
2023-03-07T18:02:23.455Z,79.14
2023-03-07T18:04:51.522Z,79.72
2023-03-07T18:07:19.684Z,79.41
2023-03-07T18:09:48.475Z,79.29
2023-03-07T18:12:17.958Z,79.83
2023-03-07T18:14:44.367Z,79.44
2023-03-07T18:17:11.116Z,79.06
2023-03-07T18:19:38.439Z,79.30
2023-03-07T18:22:04.955Z,79.11
2023-03-07T18:24:31.490Z,78.97
2023-03-07T18:27:03.284Z,79.18
2023-03-07T18:29:29.808Z,79.32
2023-03-07T18:31:56.552Z,79.17
2023-03-07T18:34:24.647Z,79.47
2023-03-07T18:36:53.000Z,79.87
2023-03-07T18:39:20.615Z,79.93
2023-03-07T18:41:48.481Z,79.73
2023-03-07T18:44:18.216Z,79.95
2023-03-07T18:46:44.710Z,80.06
2023-03-07T18:49:11.122Z,80.93
2023-03-07T18:51:39.408Z,81.45
2023-03-07T18:54:08.931Z,81.85
2023-03-07T18:56:35.425Z,82.38
2023-03-07T18:59:01.980Z,82.68
2023-03-07T19:01:35.725Z,83.14
2023-03-07T19:04:04.290Z,83.45
2023-03-07T19:06:33.762Z,83.62
2023-03-07T19:09:00.601Z,83.40
2023-03-07T19:11:27.060Z,83.48
2023-03-07T19:13:53.516Z,83.56
2023-03-07T19:16:26.525Z,83.71
2023-03-07T19:18:53.657Z,83.95
2023-03-07T19:21:25.083Z,83.58
2023-03-07T19:23:52.318Z,83.09
2023-03-07T19:26:20.381Z,83.10
2023-03-07T19:28:48.237Z,83.10
2023-03-07T19:31:20.091Z,82.67
2023-03-07T19:33:47.452Z,82.27
2023-03-07T19:36:22.337Z,82.34
2023-03-07T19:38:50.234Z,82.26
2023-03-07T19:41:18.909Z,82.10
2023-03-07T19:43:45.753Z,82.19
2023-03-07T19:46:13.491Z,81.93
2023-03-07T19:48:40.902Z,81.84
2023-03-07T19:51:18.457Z,81.67
2023-03-07T19:53:45.600Z,81.41
2023-03-07T19:56:20.636Z,81.65
2023-03-07T19:58:47.292Z,81.56
2023-03-07T20:01:16.459Z,82.17
2023-03-07T20:03:43.105Z,81.77
2023-03-07T20:06:14.770Z,81.63
2023-03-07T20:08:41.333Z,81.90
2023-03-07T20:11:16.310Z,82.19
2023-03-07T20:13:43.785Z,82.47
2023-03-07T20:16:10.664Z,82.73
2023-03-07T20:18:37.318Z,82.45
2023-03-07T20:21:09.529Z,83.07
2023-03-07T20:23:36.315Z,83.15
2023-03-07T20:26:17.534Z,83.61
2023-03-07T20:28:44.290Z,83.46
2023-03-07T20:31:11.419Z,83.89
2023-03-07T20:33:39.578Z,83.96
2023-03-07T20:36:08.414Z,83.73
2023-03-07T20:38:36.540Z,84.27
2023-03-07T20:41:05.173Z,84.64
2023-03-07T20:43:32.278Z,84.61
2023-03-07T20:46:03.475Z,84.70
2023-03-07T20:48:30.019Z,84.92
2023-03-07T20:50:57.164Z,84.65
2023-03-07T20:53:23.598Z,84.55
2023-03-07T20:55:50.036Z,85.10
2023-03-07T20:58:16.433Z,85.31
2023-03-07T21:00:42.871Z,85.12
2023-03-07T21:03:13.370Z,85.49
2023-03-07T21:05:39.899Z,85.50
2023-03-07T21:08:06.374Z,85.68
2023-03-07T21:10:32.795Z,86.05
2023-03-07T21:12:59.207Z,86.32
2023-03-07T21:15:26.064Z,86.21
2023-03-07T21:17:52.806Z,86.58
2023-03-07T21:20:19.277Z,86.59
2023-03-07T21:22:46.584Z,86.79
2023-03-07T21:25:13.022Z,86.93
2023-03-07T21:27:39.420Z,86.80
2023-03-07T21:30:06.539Z,86.85
2023-03-07T21:32:32.931Z,86.93
2023-03-07T21:34:59.332Z,86.71
2023-03-07T21:37:25.814Z,86.92
2023-03-07T21:39:52.559Z,86.95
2023-03-07T21:42:18.949Z,86.59
2023-03-07T21:44:45.400Z,86.92
2023-03-07T21:47:12.986Z,86.48
2023-03-07T21:49:39.462Z,86.72
2023-03-07T21:52:05.901Z,86.59
2023-03-07T21:54:32.371Z,86.39
2023-03-07T21:56:58.843Z,86.00
2023-03-07T21:59:28.106Z,86.38
2023-03-07T22:01:54.870Z,86.14
2023-03-07T22:04:21.359Z,85.76
2023-03-07T22:06:48.484Z,85.99
2023-03-07T22:09:14.930Z,85.59
2023-03-07T22:11:41.351Z,85.79
2023-03-07T22:14:07.753Z,85.89
2023-03-07T22:16:34.276Z,85.62
2023-03-07T22:19:00.694Z,85.88
2023-03-07T22:21:27.675Z,85.83
2023-03-07T22:24:00.622Z,85.67
2023-03-07T22:26:28.197Z,85.64
2023-03-07T22:28:54.666Z,85.70
2023-03-07T22:31:21.143Z,85.86
2023-03-07T22:33:47.577Z,86.35
2023-03-07T22:36:14.351Z,86.35
2023-03-07T22:38:42.625Z,86.38
2023-03-07T22:41:14.594Z,86.15
2023-03-07T22:43:41.415Z,86.25
2023-03-07T22:46:08.616Z,86.62
2023-03-07T22:48:35.518Z,86.65
2023-03-07T22:51:02.348Z,86.79
2023-03-07T22:53:30.926Z,86.40
2023-03-07T22:56:01.465Z,86.67
2023-03-07T22:58:28.675Z,86.71
2023-03-07T23:00:55.672Z,86.47
2023-03-07T23:03:23.287Z,86.78
2023-03-07T23:05:49.909Z,86.81
2023-03-07T23:08:16.503Z,87.01
2023-03-07T23:10:42.904Z,87.05
2023-03-07T23:13:09.316Z,87.37
2023-03-07T23:15:39.488Z,87.60
2023-03-07T23:18:05.981Z,87.51
2023-03-07T23:20:32.426Z,87.71
2023-03-07T23:22:58.830Z,87.35
2023-03-07T23:25:25.243Z,87.82
2023-03-07T23:27:51.635Z,87.72
2023-03-07T23:30:18.093Z,87.49
2023-03-07T23:32:44.669Z,87.36
2023-03-07T23:35:11.578Z,87.77
2023-03-07T23:37:38.054Z,87.69
2023-03-07T23:40:05.092Z,87.80
2023-03-07T23:42:31.762Z,87.77
2023-03-07T23:44:58.172Z,87.97
2023-03-07T23:47:24.624Z,87.82
2023-03-07T23:49:51.020Z,87.75
2023-03-07T23:52:17.870Z,87.86
2023-03-07T23:54:45.200Z,87.85
2023-03-07T23:57:11.621Z,87.80
2023-03-07T23:59:38.010Z,87.78
